vACC Украина

В сети VATSIM территория Украины структурно представлена в виде vACC (virtual Area Control Center) в составе русскоязычного дивизиона VATRUS.

vACC обеспечивает обслуживание воздушного движения в соответствии с местными правилами в вверенных ему районах полетной информации: Киев, Днепропетровск, Симферополь, Одесса и Львов.

Вся информация касательно выполнения полетов в воздушном пространстве vACC Ukraine, а так же информация о доступных аэропортах находится на соответствующем сайте:

www.vacc-ua.org

Лого vACC Украина
Руководитель региона

Andriy Viter

Контакты

Инструкторы региона
Vladislav Savchuk (Instructor)
Включает в себя

РПИ Днепропетровск
РПИ Киев
РПИ Львов
РПИ Одесса
РПИ Симферополь

Диспетчеры региона

Диспетчер Рейтинг Допуски *
Ivan Chernov Senior Controller UKFV_CTR

Аэропорты региона

ICAO Город Название Погода
UKBB Киев-Борисполь Борисполь UKBB 161830Z 23003MPS CAVOK M03/M06 Q1016 NOSIG
UKOO Одесса Одесса UKOO 161830Z 20002MPS CAVOK M03/M06 Q1022 NOSIG
UKFF Симферополь Симферополь UKFF 161830Z 30002MPS 9999 OVC049 01/M06 Q1022 R01/090095 NOSIG
UKHH Харьков Харьков UKHH 161830Z 30003MPS 9999 BKN042 M01/M05 Q1015 NOSIG
UKDD Днепропетровск Днепропетровск UKDD 161830Z 30004MPS 9999 BKN041 M01/M05 Q1018 NOSIG
UKKO Житомир Житомир
UKDE Запорожье Запорожье UKDE 161830Z 27004MPS 9999 BKN046 M00/M04 Q1019 NOSIG
UKLI Ивано-Франковск Ивано-Франковск UKLI 161800Z 00000MPS CAVOK M03/M06 Q1017 NOSIG
UKKM Киев-Антонов Антонов UKKM 161830Z AUTO 21003MPS 9999 // NCD M03/M06 Q1015
UKKK Киев-Жуляны Жуляны UKKK 161830Z 23003MPS 9999 NSC M04/M06 Q1016 NOSIG
UKLL Львов Львов UKLL 161830Z 25005MPS CAVOK 01/M06 Q1016 NOSIG
UKON Николаев Николаев UKON 161500Z 28003MPS 9999 BKN041 01/M05 Q1022 NOSIG
UKFB Севастополь Бельбек
UKKE Черкассы Черкассы
UKKG Кировоград Кировоград
UKOH Херсон Херсон